sensor_id;sensor_type;location;lat;lon;timestamp;P1;durP1;ratioP1;P2;durP2;ratioP2
47161;SDS011;32921;53.256;8.198;2024-03-25T00:01:28;163.00;;;152.93;;
47161;SDS011;32921;53.256;8.198;2024-03-25T00:03:54;142.68;;;133.93;;
47161;SDS011;32921;53.256;8.198;2024-03-25T00:06:19;138.43;;;129.90;;
47161;SDS011;32921;53.256;8.198;2024-03-25T00:08:45;140.32;;;131.65;;
47161;SDS011;32921;53.256;8.198;2024-03-25T00:11:10;146.27;;;137.25;;
47161;SDS011;32921;53.256;8.198;2024-03-25T00:13:36;133.13;;;124.97;;
47161;SDS011;32921;53.256;8.198;2024-03-25T00:16:02;129.18;;;121.22;;
47161;SDS011;32921;53.256;8.198;2024-03-25T00:18:29;139.85;;;131.20;;
47161;SDS011;32921;53.256;8.198;2024-03-25T00:20:56;134.98;;;126.75;;
47161;SDS011;32921;53.256;8.198;2024-03-25T00:23:22;136.60;;;128.25;;
47161;SDS011;32921;53.256;8.198;2024-03-25T00:25:47;152.18;;;142.82;;
47161;SDS011;32921;53.256;8.198;2024-03-25T00:28:13;168.15;;;157.77;;
47161;SDS011;32921;53.256;8.198;2024-03-25T00:30:39;140.77;;;132.13;;
47161;SDS011;32921;53.256;8.198;2024-03-25T00:33:05;132.73;;;124.55;;
47161;SDS011;32921;53.256;8.198;2024-03-25T00:35:31;128.38;;;119.75;;
47161;SDS011;32921;53.256;8.198;2024-03-25T00:38:00;129.32;;;121.38;;
47161;SDS011;32921;53.256;8.198;2024-03-25T00:40:26;123.38;;;115.75;;
47161;SDS011;32921;53.256;8.198;2024-03-25T00:42:51;133.00;;;124.78;;
47161;SDS011;32921;53.256;8.198;2024-03-25T00:45:17;121.13;;;113.68;;
47161;SDS011;32921;53.256;8.198;2024-03-25T00:47:43;113.90;;;106.97;;
47161;SDS011;32921;53.256;8.198;2024-03-25T00:50:08;125.22;;;117.40;;
47161;SDS011;32921;53.256;8.198;2024-03-25T00:52:34;117.53;;;110.18;;
47161;SDS011;32921;53.256;8.198;2024-03-25T00:55:00;104.35;;;97.80;;
47161;SDS011;32921;53.256;8.198;2024-03-25T00:57:26;91.45;;;85.80;;
47161;SDS011;32921;53.256;8.198;2024-03-25T00:59:52;105.22;;;98.35;;
47161;SDS011;32921;53.256;8.198;2024-03-25T01:02:17;77.15;;;72.30;;
47161;SDS011;32921;53.256;8.198;2024-03-25T01:04:43;84.20;;;78.88;;
47161;SDS011;32921;53.256;8.198;2024-03-25T01:07:09;76.78;;;71.90;;
47161;SDS011;32921;53.256;8.198;2024-03-25T01:09:34;75.78;;;70.82;;
47161;SDS011;32921;53.256;8.198;2024-03-25T01:12:00;79.28;;;74.20;;
47161;SDS011;32921;53.256;8.198;2024-03-25T01:14:26;74.55;;;69.90;;
47161;SDS011;32921;53.256;8.198;2024-03-25T01:16:52;81.13;;;75.93;;
47161;SDS011;32921;53.256;8.198;2024-03-25T01:19:17;79.93;;;74.88;;
47161;SDS011;32921;53.256;8.198;2024-03-25T01:21:43;87.45;;;81.68;;
47161;SDS011;32921;53.256;8.198;2024-03-25T01:24:09;80.65;;;75.50;;
47161;SDS011;32921;53.256;8.198;2024-03-25T01:26:35;69.55;;;64.97;;
47161;SDS011;32921;53.256;8.198;2024-03-25T01:29:01;82.57;;;77.35;;
47161;SDS011;32921;53.256;8.198;2024-03-25T01:31:27;78.32;;;73.45;;
47161;SDS011;32921;53.256;8.198;2024-03-25T01:33:53;82.22;;;76.95;;
47161;SDS011;32921;53.256;8.198;2024-03-25T01:36:18;78.80;;;73.72;;
47161;SDS011;32921;53.256;8.198;2024-03-25T01:38:44;76.82;;;71.85;;
47161;SDS011;32921;53.256;8.198;2024-03-25T01:41:13;79.38;;;74.28;;
47161;SDS011;32921;53.256;8.198;2024-03-25T01:43:41;71.95;;;67.28;;
47161;SDS011;32921;53.256;8.198;2024-03-25T01:46:07;69.63;;;65.25;;
47161;SDS011;32921;53.256;8.198;2024-03-25T01:48:34;73.28;;;68.55;;
47161;SDS011;32921;53.256;8.198;2024-03-25T01:51:00;74.32;;;69.70;;
47161;SDS011;32921;53.256;8.198;2024-03-25T01:53:27;75.25;;;70.63;;
47161;SDS011;32921;53.256;8.198;2024-03-25T01:55:54;84.72;;;78.90;;
47161;SDS011;32921;53.256;8.198;2024-03-25T01:58:22;80.38;;;75.15;;
47161;SDS011;32921;53.256;8.198;2024-03-25T02:00:48;74.07;;;69.50;;
47161;SDS011;32921;53.256;8.198;2024-03-25T02:03:15;85.18;;;79.70;;
47161;SDS011;32921;53.256;8.198;2024-03-25T02:05:42;76.70;;;71.78;;
47161;SDS011;32921;53.256;8.198;2024-03-25T02:08:08;76.88;;;71.95;;
47161;SDS011;32921;53.256;8.198;2024-03-25T02:10:34;75.72;;;70.93;;
47161;SDS011;32921;53.256;8.198;2024-03-25T02:13:02;87.60;;;82.25;;
47161;SDS011;32921;53.256;8.198;2024-03-25T02:15:28;82.03;;;76.70;;
47161;SDS011;32921;53.256;8.198;2024-03-25T02:17:54;83.35;;;78.07;;
47161;SDS011;32921;53.256;8.198;2024-03-25T02:20:20;101.22;;;94.95;;
47161;SDS011;32921;53.256;8.198;2024-03-25T02:22:45;88.53;;;83.13;;
47161;SDS011;32921;53.256;8.198;2024-03-25T02:25:11;100.97;;;94.45;;
47161;SDS011;32921;53.256;8.198;2024-03-25T02:27:38;102.03;;;95.55;;
47161;SDS011;32921;53.256;8.198;2024-03-25T02:30:07;97.22;;;91.10;;
47161;SDS011;32921;53.256;8.198;2024-03-25T02:32:35;105.95;;;99.32;;
47161;SDS011;32921;53.256;8.198;2024-03-25T02:35:05;102.25;;;95.40;;
47161;SDS011;32921;53.256;8.198;2024-03-25T02:37:35;102.20;;;95.80;;
47161;SDS011;32921;53.256;8.198;2024-03-25T02:40:02;105.13;;;98.53;;
47161;SDS011;32921;53.256;8.198;2024-03-25T02:42:30;108.50;;;101.70;;
47161;SDS011;32921;53.256;8.198;2024-03-25T02:44:56;106.40;;;99.70;;
47161;SDS011;32921;53.256;8.198;2024-03-25T02:47:22;121.22;;;113.63;;
47161;SDS011;32921;53.256;8.198;2024-03-25T02:49:48;107.28;;;100.57;;
47161;SDS011;32921;53.256;8.198;2024-03-25T02:52:14;110.82;;;104.00;;
47161;SDS011;32921;53.256;8.198;2024-03-25T02:54:39;100.45;;;94.18;;
47161;SDS011;32921;53.256;8.198;2024-03-25T02:57:05;107.65;;;100.85;;
47161;SDS011;32921;53.256;8.198;2024-03-25T02:59:31;106.35;;;99.70;;
47161;SDS011;32921;53.256;8.198;2024-03-25T03:01:57;103.43;;;97.00;;
47161;SDS011;32921;53.256;8.198;2024-03-25T03:04:22;100.32;;;94.13;;
47161;SDS011;32921;53.256;8.198;2024-03-25T03:06:48;102.60;;;96.15;;
47161;SDS011;32921;53.256;8.198;2024-03-25T03:09:13;87.68;;;82.20;;
47161;SDS011;32921;53.256;8.198;2024-03-25T03:11:40;105.75;;;99.10;;
47161;SDS011;32921;53.256;8.198;2024-03-25T03:14:06;95.88;;;89.82;;
47161;SDS011;32921;53.256;8.198;2024-03-25T03:16:31;97.53;;;91.43;;
47161;SDS011;32921;53.256;8.198;2024-03-25T03:18:57;103.57;;;97.18;;
47161;SDS011;32921;53.256;8.198;2024-03-25T03:21:22;95.00;;;88.88;;
47161;SDS011;32921;53.256;8.198;2024-03-25T03:23:48;89.90;;;84.25;;
47161;SDS011;32921;53.256;8.198;2024-03-25T03:26:13;94.18;;;88.00;;
47161;SDS011;32921;53.256;8.198;2024-03-25T03:28:39;94.43;;;88.43;;
47161;SDS011;32921;53.256;8.198;2024-03-25T03:31:05;89.93;;;84.35;;
47161;SDS011;32921;53.256;8.198;2024-03-25T03:33:31;96.70;;;90.65;;
47161;SDS011;32921;53.256;8.198;2024-03-25T03:35:57;100.93;;;94.70;;
47161;SDS011;32921;53.256;8.198;2024-03-25T03:38:22;109.20;;;102.55;;
47161;SDS011;32921;53.256;8.198;2024-03-25T03:40:58;97.93;;;91.90;;
47161;SDS011;32921;53.256;8.198;2024-03-25T03:43:23;112.32;;;105.45;;
47161;SDS011;32921;53.256;8.198;2024-03-25T03:45:49;113.38;;;106.35;;
47161;SDS011;32921;53.256;8.198;2024-03-25T03:48:15;126.78;;;118.93;;
47161;SDS011;32921;53.256;8.198;2024-03-25T03:50:41;125.13;;;117.28;;
47161;SDS011;32921;53.256;8.198;2024-03-25T03:53:07;120.25;;;112.80;;
47161;SDS011;32921;53.256;8.198;2024-03-25T03:55:33;133.38;;;125.18;;
47161;SDS011;32921;53.256;8.198;2024-03-25T03:57:58;114.43;;;107.30;;
47161;SDS011;32921;53.256;8.198;2024-03-25T04:00:24;108.63;;;101.85;;
47161;SDS011;32921;53.256;8.198;2024-03-25T04:02:49;127.00;;;119.05;;
47161;SDS011;32921;53.256;8.198;2024-03-25T04:05:15;135.90;;;127.55;;
47161;SDS011;32921;53.256;8.198;2024-03-25T04:07:41;123.47;;;115.57;;
47161;SDS011;32921;53.256;8.198;2024-03-25T04:10:07;118.75;;;111.50;;
47161;SDS011;32921;53.256;8.198;2024-03-25T04:12:34;118.55;;;111.25;;
47161;SDS011;32921;53.256;8.198;2024-03-25T04:15:01;137.02;;;128.63;;
47161;SDS011;32921;53.256;8.198;2024-03-25T04:17:30;131.68;;;123.45;;
47161;SDS011;32921;53.256;8.198;2024-03-25T04:19:58;129.60;;;121.70;;
47161;SDS011;32921;53.256;8.198;2024-03-25T04:22:31;125.32;;;117.60;;
47161;SDS011;32921;53.256;8.198;2024-03-25T04:24:56;120.72;;;113.28;;
47161;SDS011;32921;53.256;8.198;2024-03-25T04:27:22;120.95;;;113.55;;
47161;SDS011;32921;53.256;8.198;2024-03-25T04:29:49;116.72;;;109.55;;
47161;SDS011;32921;53.256;8.198;2024-03-25T04:32:15;136.13;;;127.75;;
47161;SDS011;32921;53.256;8.198;2024-03-25T04:34:41;133.43;;;125.20;;
47161;SDS011;32921;53.256;8.198;2024-03-25T04:37:06;147.68;;;138.40;;
47161;SDS011;32921;53.256;8.198;2024-03-25T04:39:33;140.07;;;131.48;;
47161;SDS011;32921;53.256;8.198;2024-03-25T04:41:58;131.73;;;123.63;;
47161;SDS011;32921;53.256;8.198;2024-03-25T04:44:24;113.57;;;106.53;;
47161;SDS011;32921;53.256;8.198;2024-03-25T04:46:49;121.78;;;110.63;;
47161;SDS011;32921;53.256;8.198;2024-03-25T04:49:15;98.68;;;92.18;;
47161;SDS011;32921;53.256;8.198;2024-03-25T04:51:41;100.63;;;94.25;;
47161;SDS011;32921;53.256;8.198;2024-03-25T04:54:07;95.90;;;89.97;;
47161;SDS011;32921;53.256;8.198;2024-03-25T04:56:32;88.80;;;83.35;;
47161;SDS011;32921;53.256;8.198;2024-03-25T04:58:58;92.70;;;86.57;;
47161;SDS011;32921;53.256;8.198;2024-03-25T05:01:26;69.90;;;65.53;;
47161;SDS011;32921;53.256;8.198;2024-03-25T05:03:53;71.72;;;67.32;;
47161;SDS011;32921;53.256;8.198;2024-03-25T05:06:18;77.32;;;72.38;;
47161;SDS011;32921;53.256;8.198;2024-03-25T05:08:44;80.47;;;75.20;;
47161;SDS011;32921;53.256;8.198;2024-03-25T05:11:10;80.18;;;74.80;;
47161;SDS011;32921;53.256;8.198;2024-03-25T05:13:35;75.15;;;70.30;;
47161;SDS011;32921;53.256;8.198;2024-03-25T05:16:01;73.43;;;68.63;;
47161;SDS011;32921;53.256;8.198;2024-03-25T05:18:27;99.65;;;92.85;;
47161;SDS011;32921;53.256;8.198;2024-03-25T05:20:52;94.38;;;88.28;;
47161;SDS011;32921;53.256;8.198;2024-03-25T05:23:18;88.22;;;82.45;;
47161;SDS011;32921;53.256;8.198;2024-03-25T05:25:43;87.72;;;82.22;;
47161;SDS011;32921;53.256;8.198;2024-03-25T05:28:09;97.07;;;90.78;;
47161;SDS011;32921;53.256;8.198;2024-03-25T05:30:35;97.13;;;90.95;;
47161;SDS011;32921;53.256;8.198;2024-03-25T05:33:01;103.40;;;96.60;;
47161;SDS011;32921;53.256;8.198;2024-03-25T05:35:26;100.57;;;94.00;;
47161;SDS011;32921;53.256;8.198;2024-03-25T05:37:52;120.25;;;112.45;;
47161;SDS011;32921;53.256;8.198;2024-03-25T05:40:18;105.00;;;98.35;;
47161;SDS011;32921;53.256;8.198;2024-03-25T05:42:47;83.88;;;78.47;;
47161;SDS011;32921;53.256;8.198;2024-03-25T05:45:12;88.18;;;82.35;;
47161;SDS011;32921;53.256;8.198;2024-03-25T05:47:38;82.95;;;77.43;;
47161;SDS011;32921;53.256;8.198;2024-03-25T05:50:04;79.28;;;74.30;;
47161;SDS011;32921;53.256;8.198;2024-03-25T05:52:30;84.13;;;78.75;;
47161;SDS011;32921;53.256;8.198;2024-03-25T05:54:56;89.00;;;83.22;;
47161;SDS011;32921;53.256;8.198;2024-03-25T05:57:22;97.65;;;91.70;;
47161;SDS011;32921;53.256;8.198;2024-03-25T05:59:48;101.20;;;94.82;;
47161;SDS011;32921;53.256;8.198;2024-03-25T06:02:14;105.85;;;99.43;;
47161;SDS011;32921;53.256;8.198;2024-03-25T06:04:39;123.05;;;115.20;;
47161;SDS011;32921;53.256;8.198;2024-03-25T06:07:05;127.88;;;119.57;;
47161;SDS011;32921;53.256;8.198;2024-03-25T06:09:30;137.50;;;129.10;;
47161;SDS011;32921;53.256;8.198;2024-03-25T06:11:56;139.50;;;130.77;;
47161;SDS011;32921;53.256;8.198;2024-03-25T06:14:21;130.52;;;122.47;;
47161;SDS011;32921;53.256;8.198;2024-03-25T06:16:47;152.88;;;143.45;;
47161;SDS011;32921;53.256;8.198;2024-03-25T06:19:13;147.35;;;137.70;;
47161;SDS011;32921;53.256;8.198;2024-03-25T06:21:38;162.93;;;152.90;;
47161;SDS011;32921;53.256;8.198;2024-03-25T06:24:04;148.43;;;138.85;;
47161;SDS011;32921;53.256;8.198;2024-03-25T06:26:30;152.00;;;142.65;;
47161;SDS011;32921;53.256;8.198;2024-03-25T06:28:55;150.93;;;141.68;;
47161;SDS011;32921;53.256;8.198;2024-03-25T06:31:21;148.30;;;138.93;;
47161;SDS011;32921;53.256;8.198;2024-03-25T06:34:05;157.98;;;147.93;;
47161;SDS011;32921;53.256;8.198;2024-03-25T06:36:40;195.23;;;182.52;;
47161;SDS011;32921;53.256;8.198;2024-03-25T06:39:06;177.55;;;166.43;;
47161;SDS011;32921;53.256;8.198;2024-03-25T06:41:32;221.18;;;207.63;;
47161;SDS011;32921;53.256;8.198;2024-03-25T06:43:57;255.93;;;239.70;;
47161;SDS011;32921;53.256;8.198;2024-03-25T06:46:23;251.38;;;235.55;;
47161;SDS011;32921;53.256;8.198;2024-03-25T06:48:49;263.42;;;246.07;;
47161;SDS011;32921;53.256;8.198;2024-03-25T06:51:15;248.95;;;231.60;;
47161;SDS011;32921;53.256;8.198;2024-03-25T06:53:40;243.65;;;226.55;;
47161;SDS011;32921;53.256;8.198;2024-03-25T06:56:06;247.82;;;229.32;;
47161;SDS011;32921;53.256;8.198;2024-03-25T06:58:31;240.50;;;223.05;;
47161;SDS011;32921;53.256;8.198;2024-03-25T07:01:03;305.48;;;284.58;;
47161;SDS011;32921;53.256;8.198;2024-03-25T07:03:30;438.65;;;407.50;;
47161;SDS011;32921;53.256;8.198;2024-03-25T07:05:56;476.33;;;441.20;;
47161;SDS011;32921;53.256;8.198;2024-03-25T07:08:22;499.95;;;462.55;;
47161;SDS011;32921;53.256;8.198;2024-03-25T07:10:47;485.05;;;448.55;;
47161;SDS011;32921;53.256;8.198;2024-03-25T07:13:13;438.92;;;407.05;;
47161;SDS011;32921;53.256;8.198;2024-03-25T07:15:39;425.45;;;394.85;;
47161;SDS011;32921;53.256;8.198;2024-03-25T07:18:05;375.75;;;349.52;;
47161;SDS011;32921;53.256;8.198;2024-03-25T07:20:31;393.70;;;366.27;;
47161;SDS011;32921;53.256;8.198;2024-03-25T07:22:57;376.70;;;349.50;;
47161;SDS011;32921;53.256;8.198;2024-03-25T07:25:23;381.95;;;355.02;;
47161;SDS011;32921;53.256;8.198;2024-03-25T07:27:49;361.55;;;336.42;;
47161;SDS011;32921;53.256;8.198;2024-03-25T07:30:15;356.63;;;331.52;;
47161;SDS011;32921;53.256;8.198;2024-03-25T07:32:41;345.10;;;320.70;;
47161;SDS011;32921;53.256;8.198;2024-03-25T07:35:06;343.52;;;319.35;;
47161;SDS011;32921;53.256;8.198;2024-03-25T07:37:34;346.45;;;321.48;;
47161;SDS011;32921;53.256;8.198;2024-03-25T07:39:59;348.17;;;323.98;;
47161;SDS011;32921;53.256;8.198;2024-03-25T07:42:25;333.55;;;309.85;;
47161;SDS011;32921;53.256;8.198;2024-03-25T07:44:50;377.15;;;350.15;;
47161;SDS011;32921;53.256;8.198;2024-03-25T07:47:16;516.25;;;474.02;;
47161;SDS011;32921;53.256;8.198;2024-03-25T07:49:42;607.50;;;553.83;;
47161;SDS011;32921;53.256;8.198;2024-03-25T07:52:07;663.67;;;602.92;;
47161;SDS011;32921;53.256;8.198;2024-03-25T07:54:33;690.20;;;626.35;;
47161;SDS011;32921;53.256;8.198;2024-03-25T07:56:59;749.17;;;677.53;;
47161;SDS011;32921;53.256;8.198;2024-03-25T07:59:24;688.15;;;624.83;;
47161;SDS011;32921;53.256;8.198;2024-03-25T08:01:50;678.33;;;617.15;;
47161;SDS011;32921;53.256;8.198;2024-03-25T08:04:16;609.08;;;556.35;;
47161;SDS011;32921;53.256;8.198;2024-03-25T08:06:42;624.42;;;570.53;;
47161;SDS011;32921;53.256;8.198;2024-03-25T08:09:07;647.30;;;592.65;;
47161;SDS011;32921;53.256;8.198;2024-03-25T08:11:34;630.15;;;577.45;;
47161;SDS011;32921;53.256;8.198;2024-03-25T08:14:00;514.50;;;472.50;;
47161;SDS011;32921;53.256;8.198;2024-03-25T08:16:26;397.30;;;363.05;;
47161;SDS011;32921;53.256;8.198;2024-03-25T08:18:52;308.85;;;280.90;;
47161;SDS011;32921;53.256;8.198;2024-03-25T08:21:17;368.05;;;338.30;;
47161;SDS011;32921;53.256;8.198;2024-03-25T08:23:46;435.35;;;400.85;;
47161;SDS011;32921;53.256;8.198;2024-03-25T08:26:12;502.73;;;464.52;;
47161;SDS011;32921;53.256;8.198;2024-03-25T08:28:37;521.33;;;482.95;;
47161;SDS011;32921;53.256;8.198;2024-03-25T08:31:03;540.05;;;498.17;;
47161;SDS011;32921;53.256;8.198;2024-03-25T08:33:29;551.20;;;506.90;;
47161;SDS011;32921;53.256;8.198;2024-03-25T08:35:55;534.17;;;490.55;;
47161;SDS011;32921;53.256;8.198;2024-03-25T08:38:20;514.58;;;469.13;;
47161;SDS011;32921;53.256;8.198;2024-03-25T08:40:46;514.03;;;469.50;;
47161;SDS011;32921;53.256;8.198;2024-03-25T08:43:12;501.58;;;458.17;;
47161;SDS011;32921;53.256;8.198;2024-03-25T08:45:38;505.00;;;461.58;;
47161;SDS011;32921;53.256;8.198;2024-03-25T08:48:03;491.65;;;449.48;;
47161;SDS011;32921;53.256;8.198;2024-03-25T08:50:29;497.13;;;454.83;;
47161;SDS011;32921;53.256;8.198;2024-03-25T08:52:55;539.63;;;493.23;;
47161;SDS011;32921;53.256;8.198;2024-03-25T08:55:20;522.47;;;476.65;;
47161;SDS011;32921;53.256;8.198;2024-03-25T08:57:46;570.65;;;521.00;;
47161;SDS011;32921;53.256;8.198;2024-03-25T09:00:11;540.63;;;492.77;;
47161;SDS011;32921;53.256;8.198;2024-03-25T09:02:38;608.20;;;553.97;;
47161;SDS011;32921;53.256;8.198;2024-03-25T09:05:03;638.78;;;581.55;;
47161;SDS011;32921;53.256;8.198;2024-03-25T09:07:33;578.17;;;526.10;;
47161;SDS011;32921;53.256;8.198;2024-03-25T09:09:59;623.42;;;566.90;;
47161;SDS011;32921;53.256;8.198;2024-03-25T09:12:43;606.30;;;552.35;;
47161;SDS011;32921;53.256;8.198;2024-03-25T09:15:09;611.40;;;557.13;;
47161;SDS011;32921;53.256;8.198;2024-03-25T09:17:35;579.72;;;526.72;;
47161;SDS011;32921;53.256;8.198;2024-03-25T09:20:01;668.05;;;608.03;;
47161;SDS011;32921;53.256;8.198;2024-03-25T09:22:29;642.13;;;584.00;;
47161;SDS011;32921;53.256;8.198;2024-03-25T09:24:54;609.05;;;554.35;;
47161;SDS011;32921;53.256;8.198;2024-03-25T09:27:20;616.13;;;562.33;;
47161;SDS011;32921;53.256;8.198;2024-03-25T09:29:46;584.03;;;532.17;;
47161;SDS011;32921;53.256;8.198;2024-03-25T09:32:11;630.88;;;575.15;;
47161;SDS011;32921;53.256;8.198;2024-03-25T09:34:37;571.17;;;519.55;;
47161;SDS011;32921;53.256;8.198;2024-03-25T09:37:03;597.00;;;542.80;;
47161;SDS011;32921;53.256;8.198;2024-03-25T09:39:29;621.65;;;566.92;;
47161;SDS011;32921;53.256;8.198;2024-03-25T09:41:55;617.35;;;562.03;;
47161;SDS011;32921;53.256;8.198;2024-03-25T09:44:24;610.25;;;557.08;;
47161;SDS011;32921;53.256;8.198;2024-03-25T09:46:50;630.65;;;574.40;;
47161;SDS011;32921;53.256;8.198;2024-03-25T09:49:16;626.15;;;570.47;;
47161;SDS011;32921;53.256;8.198;2024-03-25T09:51:42;641.63;;;582.97;;
47161;SDS011;32921;53.256;8.198;2024-03-25T09:54:08;644.70;;;587.10;;
47161;SDS011;32921;53.256;8.198;2024-03-25T09:56:35;637.35;;;580.67;;
47161;SDS011;32921;53.256;8.198;2024-03-25T09:59:02;631.88;;;575.08;;
47161;SDS011;32921;53.256;8.198;2024-03-25T10:01:28;728.42;;;662.03;;
47161;SDS011;32921;53.256;8.198;2024-03-25T10:03:54;696.63;;;634.38;;
47161;SDS011;32921;53.256;8.198;2024-03-25T10:06:20;773.30;;;702.35;;
47161;SDS011;32921;53.256;8.198;2024-03-25T10:08:46;791.50;;;718.08;;
47161;SDS011;32921;53.256;8.198;2024-03-25T10:11:11;819.45;;;743.05;;
47161;SDS011;32921;53.256;8.198;2024-03-25T10:13:40;831.28;;;751.38;;
47161;SDS011;32921;53.256;8.198;2024-03-25T10:16:06;833.53;;;752.42;;
47161;SDS011;32921;53.256;8.198;2024-03-25T10:18:32;853.00;;;770.28;;
47161;SDS011;32921;53.256;8.198;2024-03-25T10:20:58;822.33;;;743.55;;
47161;SDS011;32921;53.256;8.198;2024-03-25T10:23:24;866.50;;;780.28;;
47161;SDS011;32921;53.256;8.198;2024-03-25T10:25:52;833.15;;;750.20;;
47161;SDS011;32921;53.256;8.198;2024-03-25T10:28:18;846.95;;;764.00;;
47161;SDS011;32921;53.256;8.198;2024-03-25T10:30:44;869.90;;;783.40;;
47161;SDS011;32921;53.256;8.198;2024-03-25T10:33:09;873.15;;;786.08;;
47161;SDS011;32921;53.256;8.198;2024-03-25T10:35:36;887.50;;;798.65;;
47161;SDS011;32921;53.256;8.198;2024-03-25T10:38:03;855.25;;;771.45;;
47161;SDS011;32921;53.256;8.198;2024-03-25T10:40:30;888.97;;;798.58;;
47161;SDS011;32921;53.256;8.198;2024-03-25T10:45:30;884.88;;;794.75;;
47161;SDS011;32921;53.256;8.198;2024-03-25T10:47:58;865.40;;;777.30;;
47161;SDS011;32921;53.256;8.198;2024-03-25T10:50:30;866.35;;;778.95;;
47161;SDS011;32921;53.256;8.198;2024-03-25T10:52:57;873.72;;;784.97;;
47161;SDS011;32921;53.256;8.198;2024-03-25T10:55:24;881.33;;;791.22;;
47161;SDS011;32921;53.256;8.198;2024-03-25T10:57:51;881.47;;;790.25;;
47161;SDS011;32921;53.256;8.198;2024-03-25T11:00:19;903.97;;;809.47;;
47161;SDS011;32921;53.256;8.198;2024-03-25T11:02:47;885.17;;;793.97;;
47161;SDS011;32921;53.256;8.198;2024-03-25T11:05:13;916.30;;;820.97;;
47161;SDS011;32921;53.256;8.198;2024-03-25T11:07:40;895.50;;;803.33;;
47161;SDS011;32921;53.256;8.198;2024-03-25T11:10:06;908.33;;;813.22;;
47161;SDS011;32921;53.256;8.198;2024-03-25T11:12:36;902.60;;;807.45;;
47161;SDS011;32921;53.256;8.198;2024-03-25T11:15:03;909.45;;;813.40;;
47161;SDS011;32921;53.256;8.198;2024-03-25T11:17:30;906.35;;;811.33;;
47161;SDS011;32921;53.256;8.198;2024-03-25T11:20:07;890.67;;;798.38;;
47161;SDS011;32921;53.256;8.198;2024-03-25T11:22:48;918.00;;;820.05;;
47161;SDS011;32921;53.256;8.198;2024-03-25T11:25:15;885.88;;;793.63;;
47161;SDS011;32921;53.256;8.198;2024-03-25T11:27:42;911.53;;;813.53;;
47161;SDS011;32921;53.256;8.198;2024-03-25T11:30:12;895.53;;;799.67;;
47161;SDS011;32921;53.256;8.198;2024-03-25T11:35:11;893.85;;;798.72;;
47161;SDS011;32921;53.256;8.198;2024-03-25T11:37:40;893.80;;;799.92;;
47161;SDS011;32921;53.256;8.198;2024-03-25T11:40:07;901.03;;;804.70;;
47161;SDS011;32921;53.256;8.198;2024-03-25T11:42:37;905.53;;;809.55;;
47161;SDS011;32921;53.256;8.198;2024-03-25T11:45:04;949.53;;;843.08;;
47161;SDS011;32921;53.256;8.198;2024-03-25T11:47:31;900.97;;;805.80;;
47161;SDS011;32921;53.256;8.198;2024-03-25T11:49:56;926.35;;;826.25;;
47161;SDS011;32921;53.256;8.198;2024-03-25T11:52:22;925.22;;;824.78;;
47161;SDS011;32921;53.256;8.198;2024-03-25T11:54:54;942.53;;;840.58;;
47161;SDS011;32921;53.256;8.198;2024-03-25T11:57:20;909.72;;;810.42;;
47161;SDS011;32921;53.256;8.198;2024-03-25T11:59:47;899.40;;;803.17;;
47161;SDS011;32921;53.256;8.198;2024-03-25T12:02:14;861.78;;;771.97;;
47161;SDS011;32921;53.256;8.198;2024-03-25T12:04:44;873.22;;;782.08;;
47161;SDS011;32921;53.256;8.198;2024-03-25T12:07:11;907.28;;;810.03;;
47161;SDS011;32921;53.256;8.198;2024-03-25T12:09:37;876.58;;;782.85;;
47161;SDS011;32921;53.256;8.198;2024-03-25T12:12:21;892.63;;;797.33;;
47161;SDS011;32921;53.256;8.198;2024-03-25T12:14:47;914.70;;;815.42;;
47161;SDS011;32921;53.256;8.198;2024-03-25T12:17:13;902.38;;;803.72;;
47161;SDS011;32921;53.256;8.198;2024-03-25T12:19:39;914.00;;;813.42;;
47161;SDS011;32921;53.256;8.198;2024-03-25T12:22:06;942.80;;;838.30;;
47161;SDS011;32921;53.256;8.198;2024-03-25T12:24:32;922.10;;;822.75;;
47161;SDS011;32921;53.256;8.198;2024-03-25T12:26:59;950.60;;;834.58;;
47161;SDS011;32921;53.256;8.198;2024-03-25T12:29:25;957.17;;;842.33;;
47161;SDS011;32921;53.256;8.198;2024-03-25T12:31:57;926.00;;;823.13;;
47161;SDS011;32921;53.256;8.198;2024-03-25T12:34:26;959.25;;;851.28;;
47161;SDS011;32921;53.256;8.198;2024-03-25T12:36:51;924.58;;;822.72;;
47161;SDS011;32921;53.256;8.198;2024-03-25T12:39:25;924.15;;;821.92;;
47161;SDS011;32921;53.256;8.198;2024-03-25T12:41:50;953.92;;;849.05;;
47161;SDS011;32921;53.256;8.198;2024-03-25T12:44:16;928.40;;;825.90;;
47161;SDS011;32921;53.256;8.198;2024-03-25T12:46:42;932.53;;;829.92;;
47161;SDS011;32921;53.256;8.198;2024-03-25T12:49:08;938.97;;;836.03;;
47161;SDS011;32921;53.256;8.198;2024-03-25T12:51:34;920.35;;;819.58;;
47161;SDS011;32921;53.256;8.198;2024-03-25T12:54:00;921.58;;;824.13;;
47161;SDS011;32921;53.256;8.198;2024-03-25T12:56:26;972.67;;;868.90;;
47161;SDS011;32921;53.256;8.198;2024-03-25T12:58:51;988.53;;;881.42;;
47161;SDS011;32921;53.256;8.198;2024-03-25T13:01:17;962.75;;;860.72;;
47161;SDS011;32921;53.256;8.198;2024-03-25T13:03:43;943.53;;;844.42;;
47161;SDS011;32921;53.256;8.198;2024-03-25T13:06:08;936.03;;;840.72;;
47161;SDS011;32921;53.256;8.198;2024-03-25T13:08:34;933.08;;;835.38;;
47161;SDS011;32921;53.256;8.198;2024-03-25T13:10:59;895.13;;;802.40;;
47161;SDS011;32921;53.256;8.198;2024-03-25T13:13:25;890.17;;;797.97;;
47161;SDS011;32921;53.256;8.198;2024-03-25T13:15:51;886.83;;;793.05;;
47161;SDS011;32921;53.256;8.198;2024-03-25T13:18:16;895.90;;;801.63;;
47161;SDS011;32921;53.256;8.198;2024-03-25T13:20:43;898.47;;;800.92;;
47161;SDS011;32921;53.256;8.198;2024-03-25T13:23:09;947.63;;;828.83;;
47161;SDS011;32921;53.256;8.198;2024-03-25T13:25:35;970.22;;;839.72;;
47161;SDS011;32921;53.256;8.198;2024-03-25T13:28:01;930.00;;;826.05;;
47161;SDS011;32921;53.256;8.198;2024-03-25T13:30:27;942.22;;;838.30;;
47161;SDS011;32921;53.256;8.198;2024-03-25T13:32:55;913.10;;;809.45;;
47161;SDS011;32921;53.256;8.198;2024-03-25T13:35:20;951.85;;;847.25;;
47161;SDS011;32921;53.256;8.198;2024-03-25T13:37:46;879.60;;;785.03;;
47161;SDS011;32921;53.256;8.198;2024-03-25T13:40:12;925.42;;;825.85;;
47161;SDS011;32921;53.256;8.198;2024-03-25T13:42:38;955.67;;;848.40;;
47161;SDS011;32921;53.256;8.198;2024-03-25T13:45:04;975.13;;;866.67;;
47161;SDS011;32921;53.256;8.198;2024-03-25T13:47:30;952.58;;;854.17;;
47161;SDS011;32921;53.256;8.198;2024-03-25T13:50:05;991.22;;;883.72;;
47161;SDS011;32921;53.256;8.198;2024-03-25T13:52:36;991.03;;;882.95;;
47161;SDS011;32921;53.256;8.198;2024-03-25T13:55:02;959.55;;;856.42;;
47161;SDS011;32921;53.256;8.198;2024-03-25T13:57:28;985.28;;;865.30;;
47161;SDS011;32921;53.256;8.198;2024-03-25T13:59:53;1013.58;;;818.10;;
47161;SDS011;32921;53.256;8.198;2024-03-25T14:02:19;877.88;;;719.17;;